Swift — WDC6885 — position and weather

sailwx.info

Track history (hours):
 
Tides and Currents Weather Stations Pressure Air Temp Water Temp Dewpoint Dewpoint Depression Visibility Wind Speed Wind Dir Waves Ship Positions

Swift

Owner: Mohawk Marine, LLC, Newington, CT. More information available from US FCC via Universal Licensing System and Coast Guard Vessel Documentation Center.

Last reported at 2014-Nov-13 20:20 UTC. Time now 2014-Nov-24 02:32 UTC.
Position N 41°22' W 072°05'.
Warning: this ship's position is 10 days out of date.

; draft 2.5 m.

Type: Towing. MMSI: 367062680.

Date/timePositionNaut miles runAvg speedWind from/ knotsBaromVisibWave heightAir tempDewpointWater temp
2014-Nov-13 20:20N 41°22' W 072°05'0 0.0
2014-Nov-13 14:34N 41°22' W 072°05'0 0.3
2014-Nov-13 13:34N 41°22' W 072°05'0 0.1
2014-Nov-13 12:34N 41°22' W 072°06'0 0.4
2014-Nov-13 11:34N 41°22' W 072°05'0 0.0
2014-Nov-13 10:34N 41°22' W 072°05'0 0.0
2014-Nov-13 09:34N 41°22' W 072°05'0 0.0
2014-Nov-13 08:34N 41°22' W 072°05'0 0.0
2014-Nov-13 07:34N 41°22' W 072°05'0 0.0
2014-Nov-13 06:34N 41°22' W 072°05'0 0.0
2014-Nov-13 05:33N 41°22' W 072°05'0 0.0
2014-Nov-13 04:34N 41°22' W 072°05'0 0.0
2014-Nov-13 03:34N 41°22' W 072°05'0 0.0
2014-Nov-13 02:34N 41°22' W 072°05'0 0.0
2014-Nov-13 01:34N 41°22' W 072°05'0 0.0
2014-Nov-13 00:34N 41°22' W 072°05'0 0.0
2014-Nov-12 23:34N 41°22' W 072°05'0 0.0
2014-Nov-12 22:34N 41°22' W 072°05'0 0.0
2014-Nov-12 21:33N 41°22' W 072°05'0 0.1
2014-Nov-12 20:34N 41°22' W 072°05'0 0.1
2014-Nov-12 19:34N 41°22' W 072°05'0 0.0
2014-Nov-12 18:33N 41°22' W 072°05'0 0.0
2014-Nov-12 17:34N 41°22' W 072°05'0 0.0
2014-Nov-12 16:34N 41°22' W 072°05'0 0.0
2014-Nov-12 15:34N 41°22' W 072°05'0 0.0
2014-Nov-12 14:34N 41°22' W 072°05'0 0.0
2014-Nov-12 13:34N 41°22' W 072°05'0 0.0
2014-Nov-12 12:33N 41°22' W 072°05'0 0.0
2014-Nov-12 00:04N 41°22' W 072°05'3 5.3
2014-Nov-11 23:33N 41°19' W 072°05'9 8.6
2014-Nov-11 22:33N 41°15' W 072°15'10 9.9
2014-Nov-11 21:33N 41°14' W 072°28'10 9.6
2014-Nov-11 20:33N 41°14' W 072°41'9 8.9
2014-Nov-11 19:33N 41°13' W 072°52'3 2.8
2014-Nov-11 18:33N 41°14' W 072°56'0 0.0
2014-Nov-11 17:32N 41°14' W 072°56'0 0.1
2014-Nov-11 16:33N 41°14' W 072°56'0 0.0
2014-Nov-11 15:29N 41°14' W 072°56'0 0.0
2014-Nov-10 20:33N 41°14' W 072°56'2 1.5
2014-Nov-10 19:08N 41°12' W 072°58'11 4.4
2014-Nov-10 16:31N 41°09' W 073°13'1 1.0
2014-Nov-10 15:33N 41°08' W 073°13'9 8.5
2014-Nov-10 14:33N 41°10' W 073°02'5 5.5
2014-Nov-10 13:33N 41°13' W 072°56'1 1.4
2014-Nov-10 12:33N 41°14' W 072°55'  
2014-Nov-07 22:12N 41°14' W 072°55'1 0.2
2014-Nov-07 14:31N 41°14' W 072°56'0 0.0
2014-Nov-07 13:30N 41°14' W 072°56'1 0.7
2014-Nov-07 12:30N 41°14' W 072°55'1 0.0
2014-Nov-06 16:33N 41°14' W 072°56'0 0.0
2014-Nov-06 13:26N 41°14' W 072°56'0 0.4
2014-Nov-06 12:22N 41°14' W 072°56'4 0.2
2014-Nov-05 21:15N 41°18' W 072°54'1 0.6
2014-Nov-05 19:33N 41°17' W 072°55'1 0.7
2014-Nov-05 18:33N 41°16' W 072°55'3 1.0
2014-Nov-05 16:07N 41°14' W 072°56'0 0.0
2014-Nov-05 15:33N 41°14' W 072°56'0 0.0
2014-Nov-05 14:34N 41°14' W 072°56'4 3.6
2014-Nov-05 13:23N 41°18' W 072°54'0 0.0
2014-Nov-05 09:30N 41°18' W 072°54'0 0.0
2014-Nov-05 07:15N 41°18' W 072°54'0 0.0
2014-Nov-05 06:10N 41°18' W 072°54'0 0.0
2014-Nov-05 05:27N 41°18' W 072°54'0 0.0
2014-Nov-05 04:23N 41°18' W 072°54'0 0.0
2014-Nov-05 03:33N 41°18' W 072°54'0 0.0
2014-Nov-05 02:13N 41°18' W 072°54'0 0.0
2014-Nov-05 01:33N 41°18' W 072°54'0 0.0
2014-Nov-05 00:33N 41°18' W 072°54'0 0.0
2014-Nov-04 23:30N 41°18' W 072°54'1 0.2
2014-Nov-04 19:28N 41°17' W 072°55'3 3.7
2014-Nov-04 18:33N 41°14' W 072°56'0 0.0
2014-Nov-04 17:18N 41°14' W 072°56'3 1.5
2014-Nov-04 15:33N 41°16' W 072°55'  
Track history (hours):
 
Tides and Currents Weather Stations Pressure Air Temp Water Temp Dewpoint Dewpoint Depression Visibility Wind Speed Wind Dir Waves Ship Positions

Swift

Owner: Mohawk Marine, LLC, Newington, CT. More information available from US FCC via Universal Licensing System and Coast Guard Vessel Documentation Center.

Last reported at 2014-Nov-13 20:20 UTC. Time now 2014-Nov-24 02:32 UTC.
Position N 41°22' W 072°05'.
Warning: this ship's position is 10 days out of date.

; draft 2.5 m.

Type: Towing. MMSI: 367062680.

Date/timePositionNaut miles runAvg speedWind from/ knotsBaromVisibWave heightAir tempDewpointWater temp
2014-Nov-13 20:20N 41°22' W 072°05'0 0.0
2014-Nov-13 14:34N 41°22' W 072°05'0 0.3
2014-Nov-13 13:34N 41°22' W 072°05'0 0.1
2014-Nov-13 12:34N 41°22' W 072°06'0 0.4
2014-Nov-13 11:34N 41°22' W 072°05'0 0.0
2014-Nov-13 10:34N 41°22' W 072°05'0 0.0
2014-Nov-13 09:34N 41°22' W 072°05'0 0.0
2014-Nov-13 08:34N 41°22' W 072°05'0 0.0
2014-Nov-13 07:34N 41°22' W 072°05'0 0.0
2014-Nov-13 06:34N 41°22' W 072°05'0 0.0
2014-Nov-13 05:33N 41°22' W 072°05'0 0.0
2014-Nov-13 04:34N 41°22' W 072°05'0 0.0
2014-Nov-13 03:34N 41°22' W 072°05'0 0.0
2014-Nov-13 02:34N 41°22' W 072°05'0 0.0
2014-Nov-13 01:34N 41°22' W 072°05'0 0.0
2014-Nov-13 00:34N 41°22' W 072°05'0 0.0
2014-Nov-12 23:34N 41°22' W 072°05'0 0.0
2014-Nov-12 22:34N 41°22' W 072°05'0 0.0
2014-Nov-12 21:33N 41°22' W 072°05'0 0.1
2014-Nov-12 20:34N 41°22' W 072°05'0 0.1
2014-Nov-12 19:34N 41°22' W 072°05'0 0.0
2014-Nov-12 18:33N 41°22' W 072°05'0 0.0
2014-Nov-12 17:34N 41°22' W 072°05'0 0.0
2014-Nov-12 16:34N 41°22' W 072°05'0 0.0
2014-Nov-12 15:34N 41°22' W 072°05'0 0.0
2014-Nov-12 14:34N 41°22' W 072°05'0 0.0
2014-Nov-12 13:34N 41°22' W 072°05'0 0.0
2014-Nov-12 12:33N 41°22' W 072°05'0 0.0
2014-Nov-12 00:04N 41°22' W 072°05'3 5.3
2014-Nov-11 23:33N 41°19' W 072°05'9 8.6
2014-Nov-11 22:33N 41°15' W 072°15'10 9.9
2014-Nov-11 21:33N 41°14' W 072°28'10 9.6
2014-Nov-11 20:33N 41°14' W 072°41'9 8.9
2014-Nov-11 19:33N 41°13' W 072°52'3 2.8
2014-Nov-11 18:33N 41°14' W 072°56'0 0.0
2014-Nov-11 17:32N 41°14' W 072°56'0 0.1
2014-Nov-11 16:33N 41°14' W 072°56'0 0.0
2014-Nov-11 15:29N 41°14' W 072°56'0 0.0
2014-Nov-10 20:33N 41°14' W 072°56'2 1.5
2014-Nov-10 19:08N 41°12' W 072°58'11 4.4
2014-Nov-10 16:31N 41°09' W 073°13'1 1.0
2014-Nov-10 15:33N 41°08' W 073°13'9 8.5
2014-Nov-10 14:33N 41°10' W 073°02'5 5.5
2014-Nov-10 13:33N 41°13' W 072°56'1 1.4
2014-Nov-10 12:33N 41°14' W 072°55'  
2014-Nov-07 22:12N 41°14' W 072°55'1 0.2
2014-Nov-07 14:31N 41°14' W 072°56'0 0.0
2014-Nov-07 13:30N 41°14' W 072°56'1 0.7
2014-Nov-07 12:30N 41°14' W 072°55'1 0.0
2014-Nov-06 16:33N 41°14' W 072°56'0 0.0
2014-Nov-06 13:26N 41°14' W 072°56'0 0.4
2014-Nov-06 12:22N 41°14' W 072°56'4 0.2
2014-Nov-05 21:15N 41°18' W 072°54'1 0.6
2014-Nov-05 19:33N 41°17' W 072°55'1 0.7
2014-Nov-05 18:33N 41°16' W 072°55'3 1.0
2014-Nov-05 16:07N 41°14' W 072°56'0 0.0
2014-Nov-05 15:33N 41°14' W 072°56'0 0.0
2014-Nov-05 14:34N 41°14' W 072°56'4 3.6
2014-Nov-05 13:23N 41°18' W 072°54'0 0.0
2014-Nov-05 09:30N 41°18' W 072°54'0 0.0
2014-Nov-05 07:15N 41°18' W 072°54'0 0.0
2014-Nov-05 06:10N 41°18' W 072°54'0 0.0
2014-Nov-05 05:27N 41°18' W 072°54'0 0.0
2014-Nov-05 04:23N 41°18' W 072°54'0 0.0
2014-Nov-05 03:33N 41°18' W 072°54'0 0.0
2014-Nov-05 02:13N 41°18' W 072°54'0 0.0
2014-Nov-05 01:33N 41°18' W 072°54'0 0.0
2014-Nov-05 00:33N 41°18' W 072°54'0 0.0
2014-Nov-04 23:30N 41°18' W 072°54'1 0.2
2014-Nov-04 19:28N 41°17' W 072°55'3 3.7
2014-Nov-04 18:33N 41°14' W 072°56'0 0.0
2014-Nov-04 17:18N 41°14' W 072°56'3 1.5
2014-Nov-04 15:33N 41°16' W 072°55'  

Dump ship's entire track history